sensor_id;sensor_type;location;lat;lon;timestamp;pressure;altitude;pressure_sealevel;temperature;humidity
25350;BME280;13302;48.796;11.978;2023-04-19T00:01:39;97339.66;;;11.09;40.10
25350;BME280;13302;48.796;11.978;2023-04-19T00:04:27;97339.22;;;11.07;39.91
25350;BME280;13302;48.796;11.978;2023-04-19T00:07:14;97339.66;;;11.09;40.14
25350;BME280;13302;48.796;11.978;2023-04-19T00:10:03;97332.50;;;11.08;39.97
25350;BME280;13302;48.796;11.978;2023-04-19T00:12:50;97328.97;;;11.07;40.15
25350;BME280;13302;48.796;11.978;2023-04-19T00:15:37;97330.91;;;11.07;40.07
25350;BME280;13302;48.796;11.978;2023-04-19T00:18:24;97325.38;;;11.07;39.97
25350;BME280;13302;48.796;11.978;2023-04-19T00:21:11;97326.53;;;11.05;40.09
25350;BME280;13302;48.796;11.978;2023-04-19T00:24:01;97319.03;;;11.06;40.02
25350;BME280;13302;48.796;11.978;2023-04-19T00:26:48;97317.09;;;11.07;40.23
25350;BME280;13302;48.796;11.978;2023-04-19T00:29:36;97317.41;;;11.05;39.84
25350;BME280;13302;48.796;11.978;2023-04-19T00:32:24;97314.66;;;11.05;40.27
25350;BME280;13302;48.796;11.978;2023-04-19T00:35:11;97306.34;;;11.05;39.97
25350;BME280;13302;48.796;11.978;2023-04-19T00:37:58;97314.66;;;11.05;40.25
25350;BME280;13302;48.796;11.978;2023-04-19T00:40:45;97304.72;;;11.04;39.91
25350;BME280;13302;48.796;11.978;2023-04-19T00:43:32;97304.28;;;11.02;40.27
25350;BME280;13302;48.796;11.978;2023-04-19T00:46:20;97302.66;;;11.01;40.24
25350;BME280;13302;48.796;11.978;2023-04-19T00:49:08;97294.34;;;11.01;40.34
25350;BME280;13302;48.796;11.978;2023-04-19T00:51:55;97294.69;;;10.99;40.01
25350;BME280;13302;48.796;11.978;2023-04-19T00:54:42;97290.78;;;11.00;40.10
25350;BME280;13302;48.796;11.978;2023-04-19T00:57:29;97295.50;;;11.00;39.93
25350;BME280;13302;48.796;11.978;2023-04-19T01:00:17;97297.44;;;10.99;40.06
25350;BME280;13302;48.796;11.978;2023-04-19T01:03:04;97295.03;;;10.98;40.12
25350;BME280;13302;48.796;11.978;2023-04-19T01:05:52;97293.09;;;10.98;40.45
25350;BME280;13302;48.796;11.978;2023-04-19T01:08:39;97296.66;;;10.99;40.42
25350;BME280;13302;48.796;11.978;2023-04-19T01:11:27;97289.50;;;10.98;40.11
25350;BME280;13302;48.796;11.978;2023-04-19T01:14:14;97282.69;;;10.95;40.07
25350;BME280;13302;48.796;11.978;2023-04-19T01:17:06;97272.44;;;10.96;40.07
25350;BME280;13302;48.796;11.978;2023-04-19T01:20:00;97270.69;;;10.91;40.32
25350;BME280;13302;48.796;11.978;2023-04-19T01:22:47;97282.56;;;10.92;40.38
25350;BME280;13302;48.796;11.978;2023-04-19T01:25:34;97267.94;;;10.91;40.31
25350;BME280;13302;48.796;11.978;2023-04-19T01:28:21;97264.38;;;10.91;40.29
25350;BME280;13302;48.796;11.978;2023-04-19T01:31:09;97262.41;;;10.91;40.28
25350;BME280;13302;48.796;11.978;2023-04-19T01:33:56;97254.09;;;10.91;39.90
25350;BME280;13302;48.796;11.978;2023-04-19T01:36:43;97257.22;;;10.90;39.96
25350;BME280;13302;48.796;11.978;2023-04-19T01:39:31;97254.00;;;10.88;40.25
25350;BME280;13302;48.796;11.978;2023-04-19T01:42:19;97255.94;;;10.87;39.99
25350;BME280;13302;48.796;11.978;2023-04-19T01:45:06;97260.22;;;10.85;39.88
25350;BME280;13302;48.796;11.978;2023-04-19T01:47:54;97251.09;;;10.84;39.67
25350;BME280;13302;48.796;11.978;2023-04-19T01:50:41;97241.53;;;10.82;39.91
25350;BME280;13302;48.796;11.978;2023-04-19T01:53:29;97248.56;;;10.79;39.69
25350;BME280;13302;48.796;11.978;2023-04-19T01:56:17;97246.16;;;10.78;39.89
25350;BME280;13302;48.796;11.978;2023-04-19T01:59:04;97242.47;;;10.74;39.71
25350;BME280;13302;48.796;11.978;2023-04-19T02:01:51;97243.94;;;10.71;39.70
25350;BME280;13302;48.796;11.978;2023-04-19T02:04:38;97243.81;;;10.68;39.67
25350;BME280;13302;48.796;11.978;2023-04-19T02:07:25;97244.84;;;10.63;39.59
25350;BME280;13302;48.796;11.978;2023-04-19T02:10:12;97241.13;;;10.59;39.39
25350;BME280;13302;48.796;11.978;2023-04-19T02:13:01;97241.81;;;10.56;39.26
25350;BME280;13302;48.796;11.978;2023-04-19T02:15:48;97241.69;;;10.52;39.14
25350;BME280;13302;48.796;11.978;2023-04-19T02:18:35;97235.22;;;10.48;39.09
25350;BME280;13302;48.796;11.978;2023-04-19T02:21:24;97229.91;;;10.43;39.16
25350;BME280;13302;48.796;11.978;2023-04-19T02:24:11;97223.78;;;10.38;39.42
25350;BME280;13302;48.796;11.978;2023-04-19T02:26:58;97230.34;;;10.33;39.15
25350;BME280;13302;48.796;11.978;2023-04-19T02:29:45;97226.66;;;10.29;39.31
25350;BME280;13302;48.796;11.978;2023-04-19T02:32:32;97215.13;;;10.27;39.17
25350;BME280;13302;48.796;11.978;2023-04-19T02:35:19;97214.50;;;10.22;39.43
25350;BME280;13302;48.796;11.978;2023-04-19T02:38:06;97207.72;;;10.19;39.25
25350;BME280;13302;48.796;11.978;2023-04-19T02:40:53;97213.94;;;10.16;39.28
25350;BME280;13302;48.796;11.978;2023-04-19T02:43:40;97218.53;;;10.12;39.17
25350;BME280;13302;48.796;11.978;2023-04-19T02:46:27;97212.50;;;10.10;39.32
25350;BME280;13302;48.796;11.978;2023-04-19T02:49:15;97209.63;;;10.06;39.04
25350;BME280;13302;48.796;11.978;2023-04-19T02:52:03;97202.34;;;10.02;38.86
25350;BME280;13302;48.796;11.978;2023-04-19T02:54:51;97205.81;;;9.99;39.04
25350;BME280;13302;48.796;11.978;2023-04-19T02:57:39;97205.69;;;9.95;38.79
25350;BME280;13302;48.796;11.978;2023-04-19T03:00:28;97203.13;;;9.90;39.12
25350;BME280;13302;48.796;11.978;2023-04-19T03:03:25;97198.59;;;9.86;39.21
25350;BME280;13302;48.796;11.978;2023-04-19T03:06:12;97198.97;;;9.84;38.98
25350;BME280;13302;48.796;11.978;2023-04-19T03:09:00;97194.91;;;9.82;39.27
25350;BME280;13302;48.796;11.978;2023-04-19T03:11:47;97186.50;;;9.78;39.13
25350;BME280;13302;48.796;11.978;2023-04-19T03:14:36;97188.00;;;9.76;38.82
25350;BME280;13302;48.796;11.978;2023-04-19T03:17:23;97189.00;;;9.71;39.25
25350;BME280;13302;48.796;11.978;2023-04-19T03:20:11;97178.59;;;9.68;39.29
25350;BME280;13302;48.796;11.978;2023-04-19T03:22:58;97180.09;;;9.65;39.29
25350;BME280;13302;48.796;11.978;2023-04-19T03:25:46;97170.56;;;9.63;38.96
25350;BME280;13302;48.796;11.978;2023-04-19T03:28:44;97173.63;;;9.61;39.12
25350;BME280;13302;48.796;11.978;2023-04-19T03:31:49;97158.09;;;9.57;39.37
25350;BME280;13302;48.796;11.978;2023-04-19T03:34:38;97158.09;;;9.57;39.37
25350;BME280;13302;48.796;11.978;2023-04-19T03:37:25;97162.31;;;9.54;39.47
25350;BME280;13302;48.796;11.978;2023-04-19T03:40:12;97159.88;;;9.53;39.56
25350;BME280;13302;48.796;11.978;2023-04-19T03:42:59;97153.53;;;9.52;39.37
25350;BME280;13302;48.796;11.978;2023-04-19T03:45:49;97162.63;;;9.53;39.49
25350;BME280;13302;48.796;11.978;2023-04-19T03:48:37;97158.59;;;9.50;39.18
25350;BME280;13302;48.796;11.978;2023-04-19T03:51:24;97147.91;;;9.49;39.36
25350;BME280;13302;48.796;11.978;2023-04-19T03:54:11;97153.75;;;9.47;39.49
25350;BME280;13302;48.796;11.978;2023-04-19T03:56:58;97148.56;;;9.46;39.08
25350;BME280;13302;48.796;11.978;2023-04-19T03:59:45;97150.41;;;9.42;38.86
25350;BME280;13302;48.796;11.978;2023-04-19T04:02:33;97153.03;;;9.38;38.69
25350;BME280;13302;48.796;11.978;2023-04-19T04:05:22;97159.53;;;9.34;38.73
25350;BME280;13302;48.796;11.978;2023-04-19T04:08:09;97155.84;;;9.30;38.86
25350;BME280;13302;48.796;11.978;2023-04-19T04:10:56;97152.94;;;9.26;38.87
25350;BME280;13302;48.796;11.978;2023-04-19T04:13:43;97154.75;;;9.22;38.78
25350;BME280;13302;48.796;11.978;2023-04-19T04:16:37;97164.84;;;9.18;38.61
25350;BME280;13302;48.796;11.978;2023-04-19T04:19:24;97163.56;;;9.15;38.92
25350;BME280;13302;48.796;11.978;2023-04-19T04:22:13;97162.28;;;9.13;38.91
25350;BME280;13302;48.796;11.978;2023-04-19T04:25:01;97157.44;;;9.10;38.86
25350;BME280;13302;48.796;11.978;2023-04-19T04:27:55;97164.09;;;9.09;38.79
25350;BME280;13302;48.796;11.978;2023-04-19T04:30:44;97158.44;;;9.05;38.78
25350;BME280;13302;48.796;11.978;2023-04-19T04:33:32;97156.31;;;9.02;38.69
25350;BME280;13302;48.796;11.978;2023-04-19T04:36:20;97158.63;;;9.00;38.87
25350;BME280;13302;48.796;11.978;2023-04-19T04:39:09;97157.00;;;8.99;38.62
25350;BME280;13302;48.796;11.978;2023-04-19T04:41:58;97155.72;;;8.97;39.03
25350;BME280;13302;48.796;11.978;2023-04-19T04:44:45;97160.75;;;8.95;39.16
25350;BME280;13302;48.796;11.978;2023-04-19T04:47:34;97154.44;;;8.94;39.09
25350;BME280;13302;48.796;11.978;2023-04-19T04:50:24;97155.59;;;8.93;39.29
25350;BME280;13302;48.796;11.978;2023-04-19T04:53:11;97153.47;;;8.90;39.27
25350;BME280;13302;48.796;11.978;2023-04-19T04:56:01;97154.16;;;8.87;39.16
25350;BME280;13302;48.796;11.978;2023-04-19T04:58:49;97161.16;;;8.85;39.00
25350;BME280;13302;48.796;11.978;2023-04-19T05:01:45;97153.19;;;8.83;39.28
25350;BME280;13302;48.796;11.978;2023-04-19T05:04:33;97155.81;;;8.80;39.52
25350;BME280;13302;48.796;11.978;2023-04-19T05:07:20;97159.38;;;8.80;39.39
25350;BME280;13302;48.796;11.978;2023-04-19T05:10:08;97156.63;;;8.80;39.27
25350;BME280;13302;48.796;11.978;2023-04-19T05:13:06;97163.28;;;8.79;39.58
25350;BME280;13302;48.796;11.978;2023-04-19T05:15:53;97155.81;;;8.80;39.59
25350;BME280;13302;48.796;11.978;2023-04-19T05:18:43;97162.97;;;8.81;39.41
25350;BME280;13302;48.796;11.978;2023-04-19T05:21:32;97159.03;;;8.82;39.54
25350;BME280;13302;48.796;11.978;2023-04-19T05:24:21;97155.97;;;8.83;39.62
25350;BME280;13302;48.796;11.978;2023-04-19T05:27:09;97152.88;;;8.85;39.44
25350;BME280;13302;48.796;11.978;2023-04-19T05:29:57;97147.03;;;8.86;39.73
25350;BME280;13302;48.796;11.978;2023-04-19T05:32:45;97145.56;;;8.89;40.01
25350;BME280;13302;48.796;11.978;2023-04-19T05:35:33;97143.25;;;8.91;40.31
25350;BME280;13302;48.796;11.978;2023-04-19T05:38:20;97150.53;;;8.95;40.32
25350;BME280;13302;48.796;11.978;2023-04-19T05:41:08;97144.34;;;8.98;40.63
25350;BME280;13302;48.796;11.978;2023-04-19T05:43:55;97144.50;;;9.02;40.63
25350;BME280;13302;48.796;11.978;2023-04-19T05:46:43;97142.69;;;9.06;40.78
25350;BME280;13302;48.796;11.978;2023-04-19T05:49:33;97143.16;;;9.08;40.79
25350;BME280;13302;48.796;11.978;2023-04-19T05:52:35;97137.47;;;9.13;41.01
25350;BME280;13302;48.796;11.978;2023-04-19T05:55:23;97138.41;;;9.17;40.94
25350;BME280;13302;48.796;11.978;2023-04-19T05:58:11;97135.78;;;9.20;40.93
25350;BME280;13302;48.796;11.978;2023-04-19T06:00:58;97132.00;;;9.25;41.27
25350;BME280;13302;48.796;11.978;2023-04-19T06:03:45;97136.16;;;9.31;41.48
25350;BME280;13302;48.796;11.978;2023-04-19T06:06:33;97132.91;;;9.38;41.50
25350;BME280;13302;48.796;11.978;2023-04-19T06:09:20;97131.06;;;9.42;41.47
25350;BME280;13302;48.796;11.978;2023-04-19T06:12:07;97140.44;;;9.49;41.89
25350;BME280;13302;48.796;11.978;2023-04-19T06:14:54;97135.03;;;9.53;41.68
25350;BME280;13302;48.796;11.978;2023-04-19T06:17:41;97134.19;;;9.61;41.78
25350;BME280;13302;48.796;11.978;2023-04-19T06:20:29;97136.88;;;9.70;41.43
25350;BME280;13302;48.796;11.978;2023-04-19T06:23:16;97128.38;;;9.75;41.48
25350;BME280;13302;48.796;11.978;2023-04-19T06:26:04;97129.44;;;9.82;41.71
25350;BME280;13302;48.796;11.978;2023-04-19T06:28:51;97128.88;;;9.89;41.50
25350;BME280;13302;48.796;11.978;2023-04-19T06:31:38;97126.72;;;9.94;41.64
25350;BME280;13302;48.796;11.978;2023-04-19T06:34:25;97124.56;;;10.00;41.42
25350;BME280;13302;48.796;11.978;2023-04-19T06:37:12;97121.56;;;10.05;41.59
25350;BME280;13302;48.796;11.978;2023-04-19T06:39:59;97116.97;;;10.09;41.19
25350;BME280;13302;48.796;11.978;2023-04-19T06:42:47;97116.31;;;10.12;41.36
25350;BME280;13302;48.796;11.978;2023-04-19T06:45:34;97114.81;;;10.14;41.33
25350;BME280;13302;48.796;11.978;2023-04-19T06:48:22;97117.34;;;10.20;41.36
25350;BME280;13302;48.796;11.978;2023-04-19T06:51:09;97116.66;;;10.23;41.53
25350;BME280;13302;48.796;11.978;2023-04-19T06:53:56;97112.88;;;10.27;41.49
25350;BME280;13302;48.796;11.978;2023-04-19T06:56:45;97113.00;;;10.31;41.12
25350;BME280;13302;48.796;11.978;2023-04-19T06:59:32;97112.31;;;10.34;41.27
25350;BME280;13302;48.796;11.978;2023-04-19T07:02:20;97101.38;;;10.37;41.41
25350;BME280;13302;48.796;11.978;2023-04-19T07:05:08;97112.56;;;10.41;41.46
25350;BME280;13302;48.796;11.978;2023-04-19T07:07:55;97108.28;;;10.43;41.39
25350;BME280;13302;48.796;11.978;2023-04-19T07:10:42;97103.69;;;10.47;41.59
25350;BME280;13302;48.796;11.978;2023-04-19T07:13:29;97102.22;;;10.50;41.23
25350;BME280;13302;48.796;11.978;2023-04-19T07:16:17;97098.38;;;10.54;41.47
25350;BME280;13302;48.796;11.978;2023-04-19T07:19:04;97093.03;;;10.58;41.38
25350;BME280;13302;48.796;11.978;2023-04-19T07:21:51;97090.38;;;10.62;41.36
25350;BME280;13302;48.796;11.978;2023-04-19T07:24:38;97091.97;;;10.63;41.34
25350;BME280;13302;48.796;11.978;2023-04-19T07:27:27;97086.22;;;10.68;41.65
25350;BME280;13302;48.796;11.978;2023-04-19T07:30:14;97088.75;;;10.73;41.56
25350;BME280;13302;48.796;11.978;2023-04-19T07:33:01;97085.66;;;10.74;41.26
25350;BME280;13302;48.796;11.978;2023-04-19T07:35:50;97087.72;;;10.77;41.43
25350;BME280;13302;48.796;11.978;2023-04-19T07:38:38;97083.44;;;10.80;41.25
25350;BME280;13302;48.796;11.978;2023-04-19T07:41:25;97083.91;;;10.82;41.40
25350;BME280;13302;48.796;11.978;2023-04-19T07:44:12;97086.31;;;10.83;41.19
25350;BME280;13302;48.796;11.978;2023-04-19T07:47:00;97086.44;;;10.87;41.16
25350;BME280;13302;48.796;11.978;2023-04-19T07:49:51;97086.44;;;10.87;41.50
25350;BME280;13302;48.796;11.978;2023-04-19T07:52:38;97086.56;;;10.90;41.29
25350;BME280;13302;48.796;11.978;2023-04-19T07:55:26;97086.66;;;10.94;41.37
25350;BME280;13302;48.796;11.978;2023-04-19T07:58:13;97083.53;;;10.95;41.12
25350;BME280;13302;48.796;11.978;2023-04-19T08:01:00;97081.25;;;10.97;41.44
25350;BME280;13302;48.796;11.978;2023-04-19T08:03:47;97076.63;;;11.01;41.10
25350;BME280;13302;48.796;11.978;2023-04-19T08:06:35;97081.34;;;11.01;41.12
25350;BME280;13302;48.796;11.978;2023-04-19T08:09:23;97077.88;;;11.04;40.97
25350;BME280;13302;48.796;11.978;2023-04-19T08:12:10;97082.59;;;11.03;41.19
25350;BME280;13302;48.796;11.978;2023-04-19T08:15:12;97067.28;;;11.06;41.31
25350;BME280;13302;48.796;11.978;2023-04-19T08:18:19;97074.88;;;11.09;40.91
25350;BME280;13302;48.796;11.978;2023-04-19T08:21:06;97064.63;;;11.10;41.16
25350;BME280;13302;48.796;11.978;2023-04-19T08:23:53;97064.94;;;11.08;40.97
25350;BME280;13302;48.796;11.978;2023-04-19T08:26:40;97069.34;;;11.09;41.21
25350;BME280;13302;48.796;11.978;2023-04-19T08:29:28;97064.94;;;11.08;41.30
25350;BME280;13302;48.796;11.978;2023-04-19T08:32:15;97067.28;;;11.06;41.22
25350;BME280;13302;48.796;11.978;2023-04-19T08:35:02;97065.31;;;11.07;41.18
25350;BME280;13302;48.796;11.978;2023-04-19T08:37:50;97067.16;;;11.02;41.34
25350;BME280;13302;48.796;11.978;2023-04-19T08:40:43;97069.13;;;11.02;41.24
25350;BME280;13302;48.796;11.978;2023-04-19T08:43:34;97061.63;;;11.02;41.48
25350;BME280;13302;48.796;11.978;2023-04-19T08:46:24;97069.94;;;11.02;41.51
25350;BME280;13302;48.796;11.978;2023-04-19T08:49:13;97058.41;;;11.00;41.68
25350;BME280;13302;48.796;11.978;2023-04-19T08:52:01;97055.19;;;10.98;41.76
25350;BME280;13302;48.796;11.978;2023-04-19T08:54:49;97057.84;;;10.95;41.60
25350;BME280;13302;48.796;11.978;2023-04-19T08:57:37;97059.44;;;10.96;41.69
25350;BME280;13302;48.796;11.978;2023-04-19T09:00:24;97048.38;;;10.96;41.70
25350;BME280;13302;48.796;11.978;2023-04-19T09:03:11;97060.16;;;10.93;41.93
25350;BME280;13302;48.796;11.978;2023-04-19T09:06:00;97044.69;;;10.92;42.20
25350;BME280;13302;48.796;11.978;2023-04-19T09:08:47;97047.13;;;10.93;42.10
25350;BME280;13302;48.796;11.978;2023-04-19T09:11:37;97043.91;;;10.91;42.14
25350;BME280;13302;48.796;11.978;2023-04-19T09:14:28;97042.84;;;10.96;42.42
25350;BME280;13302;48.796;11.978;2023-04-19T09:17:15;97033.31;;;10.93;42.25
25350;BME280;13302;48.796;11.978;2023-04-19T09:20:04;97033.75;;;10.95;42.06
25350;BME280;13302;48.796;11.978;2023-04-19T09:23:05;97027.44;;;10.95;42.18
25350;BME280;13302;48.796;11.978;2023-04-19T09:26:02;97034.09;;;10.94;42.05
25350;BME280;13302;48.796;11.978;2023-04-19T09:31:55;97023.03;;;10.94;42.37
25350;BME280;13302;48.796;11.978;2023-04-19T09:34:58;97030.97;;;10.95;42.09
25350;BME280;13302;48.796;11.978;2023-04-19T09:37:58;97030.06;;;10.91;42.57
25350;BME280;13302;48.796;11.978;2023-04-19T09:41:04;97020.63;;;10.92;42.50
25350;BME280;13302;48.796;11.978;2023-04-19T09:43:52;97027.44;;;10.95;42.59
25350;BME280;13302;48.796;11.978;2023-04-19T09:46:59;97023.16;;;10.97;42.66
25350;BME280;13302;48.796;11.978;2023-04-19T09:49:47;97022.81;;;10.99;42.31
25350;BME280;13302;48.796;11.978;2023-04-19T09:52:36;97023.16;;;10.97;42.38
25350;BME280;13302;48.796;11.978;2023-04-19T09:55:24;97010.94;;;10.98;42.53
25350;BME280;13302;48.796;11.978;2023-04-19T09:58:20;97016.47;;;10.98;42.41
25350;BME280;13302;48.796;11.978;2023-04-19T10:01:09;97015.66;;;10.98;42.63
25350;BME280;13302;48.796;11.978;2023-04-19T10:04:05;97013.59;;;10.95;42.69
25350;BME280;13302;48.796;11.978;2023-04-19T10:07:11;97007.00;;;10.99;42.38
25350;BME280;13302;48.796;11.978;2023-04-19T10:10:02;97012.91;;;10.98;42.47
25350;BME280;13302;48.796;11.978;2023-04-19T10:13:07;97004.13;;;10.96;42.65
25350;BME280;13302;48.796;11.978;2023-04-19T10:16:06;97003.44;;;10.99;42.72
25350;BME280;13302;48.796;11.978;2023-04-19T10:19:08;97004.22;;;10.99;42.54
25350;BME280;13302;48.796;11.978;2023-04-19T10:21:56;97001.47;;;10.99;42.42
25350;BME280;13302;48.796;11.978;2023-04-19T10:25:12;97000.56;;;10.95;42.55
25350;BME280;13302;48.796;11.978;2023-04-19T10:27:59;96995.38;;;10.94;42.58
25350;BME280;13302;48.796;11.978;2023-04-19T10:30:54;96991.34;;;10.91;42.70
25350;BME280;13302;48.796;11.978;2023-04-19T10:33:43;96987.78;;;10.91;42.60
25350;BME280;13302;48.796;11.978;2023-04-19T10:36:30;96993.31;;;10.91;42.92
25350;BME280;13302;48.796;11.978;2023-04-19T10:39:38;96986.63;;;10.92;42.98
25350;BME280;13302;48.796;11.978;2023-04-19T10:45:50;96981.56;;;10.94;42.86
25350;BME280;13302;48.796;11.978;2023-04-19T10:48:39;96977.97;;;10.93;43.05
25350;BME280;13302;48.796;11.978;2023-04-19T10:51:34;96984.31;;;10.94;43.10
25350;BME280;13302;48.796;11.978;2023-04-19T10:54:29;96983.16;;;10.95;42.89
25350;BME280;13302;48.796;11.978;2023-04-19T10:57:17;96974.88;;;10.95;42.70
25350;BME280;13302;48.796;11.978;2023-04-19T11:00:18;96979.94;;;10.93;42.36
25350;BME280;13302;48.796;11.978;2023-04-19T11:06:32;96975.44;;;10.88;42.55
25350;BME280;13302;48.796;11.978;2023-04-19T11:09:39;96974.53;;;10.84;42.69
25350;BME280;13302;48.796;11.978;2023-04-19T11:12:30;96977.69;;;10.83;42.69
25350;BME280;13302;48.796;11.978;2023-04-19T11:15:21;96970.44;;;10.78;42.53
25350;BME280;13302;48.796;11.978;2023-04-19T11:18:17;96965.69;;;10.79;42.76
25350;BME280;13302;48.796;11.978;2023-04-19T11:21:04;96963.72;;;10.79;42.72
25350;BME280;13302;48.796;11.978;2023-04-19T11:24:07;96960.84;;;10.76;42.80
25350;BME280;13302;48.796;11.978;2023-04-19T11:26:55;96957.66;;;10.74;42.30
25350;BME280;13302;48.796;11.978;2023-04-19T11:29:42;96958.00;;;10.72;42.48
25350;BME280;13302;48.796;11.978;2023-04-19T11:32:30;96956.16;;;10.64;42.27
25350;BME280;13302;48.796;11.978;2023-04-19T11:35:28;96951.34;;;10.61;42.54
25350;BME280;13302;48.796;11.978;2023-04-19T11:38:16;96946.25;;;10.63;42.28
25350;BME280;13302;48.796;11.978;2023-04-19T11:41:03;96949.28;;;10.58;42.30
25350;BME280;13302;48.796;11.978;2023-04-19T11:43:51;96938.66;;;10.60;42.30
25350;BME280;13302;48.796;11.978;2023-04-19T11:46:38;96945.72;;;10.57;42.41
25350;BME280;13302;48.796;11.978;2023-04-19T11:49:31;96950.41;;;10.57;42.38
25350;BME280;13302;48.796;11.978;2023-04-19T11:52:25;96941.63;;;10.55;42.53
25350;BME280;13302;48.796;11.978;2023-04-19T11:55:18;96931.38;;;10.55;42.42
25350;BME280;13302;48.796;11.978;2023-04-19T11:58:06;96946.81;;;10.56;42.06
25350;BME280;13302;48.796;11.978;2023-04-19T12:00:56;96940.19;;;10.57;42.12
25350;BME280;13302;48.796;11.978;2023-04-19T12:03:48;96936.91;;;10.55;42.13
25350;BME280;13302;48.796;11.978;2023-04-19T12:06:36;96941.28;;;10.56;41.94
25350;BME280;13302;48.796;11.978;2023-04-19T12:09:23;96934.84;;;10.52;42.01
25350;BME280;13302;48.796;11.978;2023-04-19T12:12:10;96940.72;;;10.51;41.80
25350;BME280;13302;48.796;11.978;2023-04-19T12:14:57;96946.25;;;10.51;41.56
25350;BME280;13302;48.796;11.978;2023-04-19T12:18:01;96938.19;;;10.46;41.78
25350;BME280;13302;48.796;11.978;2023-04-19T12:20:50;96941.75;;;10.46;41.77
25350;BME280;13302;48.796;11.978;2023-04-19T12:23:37;96943.63;;;10.42;41.65
25350;BME280;13302;48.796;11.978;2023-04-19T12:26:25;96949.94;;;10.43;41.79
25350;BME280;13302;48.796;11.978;2023-04-19T12:29:13;96953.41;;;10.40;41.86
25350;BME280;13302;48.796;11.978;2023-04-19T12:32:01;96948.59;;;10.37;41.69
25350;BME280;13302;48.796;11.978;2023-04-19T12:34:49;96950.88;;;10.35;41.69
25350;BME280;13302;48.796;11.978;2023-04-19T12:37:36;96944.91;;;10.33;41.84
25350;BME280;13302;48.796;11.978;2023-04-19T12:40:24;96953.53;;;10.31;41.72
25350;BME280;13302;48.796;11.978;2023-04-19T12:43:11;96962.63;;;10.32;41.47
25350;BME280;13302;48.796;11.978;2023-04-19T12:45:59;96946.06;;;10.32;41.63
25350;BME280;13302;48.796;11.978;2023-04-19T12:48:46;96942.81;;;10.30;41.75
25350;BME280;13302;48.796;11.978;2023-04-19T12:51:33;96952.63;;;10.27;41.76
25350;BME280;13302;48.796;11.978;2023-04-19T12:54:22;96949.41;;;10.25;41.75
25350;BME280;13302;48.796;11.978;2023-04-19T12:57:09;96954.13;;;10.25;41.59
25350;BME280;13302;48.796;11.978;2023-04-19T12:59:56;96950.56;;;10.24;41.62
25350;BME280;13302;48.796;11.978;2023-04-19T13:02:44;96957.22;;;10.23;41.87
25350;BME280;13302;48.796;11.978;2023-04-19T13:05:31;96955.63;;;10.22;41.57
25350;BME280;13302;48.796;11.978;2023-04-19T13:08:18;96954.69;;;10.18;41.85
25350;BME280;13302;48.796;11.978;2023-04-19T13:11:19;96938.13;;;10.18;41.45
25350;BME280;13302;48.796;11.978;2023-04-19T13:14:09;96925.94;;;10.19;41.83
25350;BME280;13302;48.796;11.978;2023-04-19T13:16:56;96938.13;;;10.18;41.52
25350;BME280;13302;48.796;11.978;2023-04-19T13:19:43;96941.34;;;10.20;41.78
25350;BME280;13302;48.796;11.978;2023-04-19T13:22:30;96928.34;;;10.21;41.50
25350;BME280;13302;48.796;11.978;2023-04-19T13:25:18;96920.06;;;10.21;41.58
25350;BME280;13302;48.796;11.978;2023-04-19T13:28:05;96923.63;;;10.21;41.52
25350;BME280;13302;48.796;11.978;2023-04-19T13:30:52;96909.44;;;10.23;41.48
25350;BME280;13302;48.796;11.978;2023-04-19T13:33:39;96908.66;;;10.22;41.53
25350;BME280;13302;48.796;11.978;2023-04-19T13:36:26;96909.94;;;10.25;41.69
25350;BME280;13302;48.796;11.978;2023-04-19T13:39:14;96911.41;;;10.22;41.53
25350;BME280;13302;48.796;11.978;2023-04-19T13:42:01;96907.06;;;10.21;41.72
25350;BME280;13302;48.796;11.978;2023-04-19T13:44:48;96909.81;;;10.21;41.72
25350;BME280;13302;48.796;11.978;2023-04-19T13:47:36;96902.19;;;10.18;41.94
25350;BME280;13302;48.796;11.978;2023-04-19T13:50:23;96904.63;;;10.20;41.65
25350;BME280;13302;48.796;11.978;2023-04-19T13:53:10;96893.59;;;10.20;41.89
25350;BME280;13302;48.796;11.978;2023-04-19T13:55:58;96891.63;;;10.20;41.76
25350;BME280;13302;48.796;11.978;2023-04-19T13:58:45;96890.81;;;10.20;41.71
25350;BME280;13302;48.796;11.978;2023-04-19T14:01:32;96883.22;;;10.17;41.81
25350;BME280;13302;48.796;11.978;2023-04-19T14:04:19;96882.44;;;10.16;41.89
25350;BME280;13302;48.796;11.978;2023-04-19T14:07:08;96872.84;;;10.13;42.10
25350;BME280;13302;48.796;11.978;2023-04-19T14:09:55;96872.06;;;10.13;41.77
25350;BME280;13302;48.796;11.978;2023-04-19T14:12:42;96869.66;;;10.11;41.72
25350;BME280;13302;48.796;11.978;2023-04-19T14:15:30;96861.38;;;10.11;41.87
25350;BME280;13302;48.796;11.978;2023-04-19T14:18:17;96867.69;;;10.12;41.92
25350;BME280;13302;48.796;11.978;2023-04-19T14:21:04;96870.09;;;10.13;41.88
25350;BME280;13302;48.796;11.978;2023-04-19T14:23:51;96868.94;;;10.14;41.92
25350;BME280;13302;48.796;11.978;2023-04-19T14:26:38;96873.34;;;10.16;41.83
25350;BME280;13302;48.796;11.978;2023-04-19T14:29:25;96866.53;;;10.13;41.93
25350;BME280;13302;48.796;11.978;2023-04-19T14:32:13;96870.47;;;10.12;41.74
25350;BME280;13302;48.796;11.978;2023-04-19T14:35:12;96868.50;;;10.12;41.97
25350;BME280;13302;48.796;11.978;2023-04-19T14:37:59;96861.81;;;10.13;41.83
25350;BME280;13302;48.796;11.978;2023-04-19T14:40:46;96859.84;;;10.14;41.77
25350;BME280;13302;48.796;11.978;2023-04-19T14:43:33;96858.38;;;10.17;41.81
25350;BME280;13302;48.796;11.978;2023-04-19T14:46:20;96851.34;;;10.19;41.94
25350;BME280;13302;48.796;11.978;2023-04-19T14:49:07;96850.63;;;10.22;41.65
25350;BME280;13302;48.796;11.978;2023-04-19T14:51:54;96846.38;;;10.25;41.75
25350;BME280;13302;48.796;11.978;2023-04-19T14:54:41;96840.16;;;10.28;41.59
25350;BME280;13302;48.796;11.978;2023-04-19T14:57:29;96840.59;;;10.30;41.27